Time;durP1;ratioP1;P1;durP2;ratioP2;P2;SDS_P1;SDS_P2;PMS_P1;PMS_P2;Temp;Humidity;BMP_temperature;BMP_pressure;BME280_temperature;BME280_humidity;BME280_pressure;Samples;Min_cycle;Max_cycle;Signal;HPM_P1;HPM_P2
2022/09/14 00:00:40;;;;;;;;;11.25;11.25;;;;;;;;5056186;28;45357;-76
2022/09/14 00:03:06;;;;;;;;;7.50;7.50;;;;;;;;5056656;28;45500;-76
2022/09/14 00:05:33;;;;;;;;;9.00;9.00;;;;;;;;5059430;28;45457;-78
2022/09/14 00:07:58;;;;;;;;;8.25;8.25;;;;;;;;5072764;28;45604;-79
2022/09/14 00:10:23;;;;;;;;;6.25;6.25;;;;;;;;5069120;28;45454;-78
2022/09/14 00:12:48;;;;;;;;;8.25;5.75;;;;;;;;5054317;28;45443;-77
2022/09/14 00:15:14;;;;;;;;;6.00;6.00;;;;;;;;5054617;28;45570;-77
2022/09/14 00:17:39;;;;;;;;;6.00;6.00;;;;;;;;5053994;28;45432;-77
2022/09/14 00:20:06;;;;;;;;;9.00;8.75;;;;;;;;5053656;28;45362;-75
2022/09/14 00:22:31;;;;;;;;;5.00;5.00;;;;;;;;5058387;28;45533;-75
2022/09/14 00:24:56;;;;;;;;;7.75;7.75;;;;;;;;5073850;28;45640;-75
2022/09/14 00:27:21;;;;;;;;;9.00;9.00;;;;;;;;5055730;28;45336;-76
2022/09/14 00:29:47;;;;;;;;;11.00;11.00;;;;;;;;5074816;28;45798;-77
2022/09/14 00:32:12;;;;;;;;;9.00;9.00;;;;;;;;5079424;28;45306;-76
2022/09/14 00:34:38;;;;;;;;;6.00;6.00;;;;;;;;5086066;28;45327;-75
2022/09/14 00:37:03;;;;;;;;;7.25;7.25;;;;;;;;5082192;28;45508;-75
2022/09/14 00:39:28;;;;;;;;;6.75;6.00;;;;;;;;5078462;28;45379;-77
2022/09/14 00:41:54;;;;;;;;;8.25;8.25;;;;;;;;5078309;28;45349;-75
2022/09/14 00:44:19;;;;;;;;;9.25;9.25;;;;;;;;5078551;28;45237;-75
2022/09/14 00:46:45;;;;;;;;;7.00;7.00;;;;;;;;5077905;28;46268;-76
2022/09/14 00:49:16;;;;;;;;;9.00;9.00;;;;;;;;5077990;28;45369;-74
2022/09/14 00:51:50;;;;;;;;;11.00;11.00;;;;;;;;5078043;28;45295;-77
2022/09/14 00:54:16;;;;;;;;;9.25;9.25;;;;;;;;5078403;28;45626;-75
2022/09/14 00:56:41;;;;;;;;;8.50;8.00;;;;;;;;5077394;28;46066;-75
2022/09/14 00:59:13;;;;;;;;;8.00;8.00;;;;;;;;5077206;27;45200;-75
2022/09/14 01:01:38;;;;;;;;;8.75;8.75;;;;;;;;5076504;28;45508;-74
2022/09/14 01:04:03;;;;;;;;;7.00;7.00;;;;;;;;5077767;28;45608;-75
2022/09/14 01:06:35;;;;;;;;;6.75;6.75;;;;;;;;5058566;28;47673;-74
2022/09/14 01:09:01;;;;;;;;;8.25;8.25;;;;;;;;5076948;28;45450;-75
2022/09/14 01:11:32;;;;;;;;;9.00;9.00;;;;;;;;5077195;28;45452;-74
2022/09/14 01:14:06;;;;;;;;;8.25;8.25;;;;;;;;5077322;28;45573;-75
2022/09/14 01:16:36;;;;;;;;;7.00;7.00;;;;;;;;5076581;28;45580;-74
2022/09/14 01:19:05;;;;;;;;;7.25;7.25;;;;;;;;5076974;28;45895;-74
2022/09/14 01:21:32;;;;;;;;;7.25;7.25;;;;;;;;5076965;28;45412;-74
2022/09/14 01:23:58;;;;;;;;;8.00;8.00;;;;;;;;5076838;28;45479;-75
2022/09/14 01:26:23;;;;;;;;;7.00;7.00;;;;;;;;5076536;28;45251;-76
2022/09/14 01:28:51;;;;;;;;;8.50;8.50;;;;;;;;5077200;28;45426;-74
2022/09/14 01:31:20;;;;;;;;;7.00;7.00;;;;;;;;5077251;28;45383;-76
2022/09/14 01:33:59;;;;;;;;;7.00;7.00;;;;;;;;5080003;28;45555;-74
2022/09/14 01:36:25;;;;;;;;;7.25;7.25;;;;;;;;5071696;28;45634;-75
2022/09/14 01:38:52;;;;;;;;;6.75;6.75;;;;;;;;5043087;28;45411;-77
2022/09/14 01:41:19;;;;;;;;;6.75;6.75;;;;;;;;5056252;28;45386;-76
2022/09/14 01:43:50;;;;;;;;;8.50;8.50;;;;;;;;5076165;28;45234;-76
2022/09/14 01:46:17;;;;;;;;;4.00;4.00;;;;;;;;5075688;28;46485;-74
2022/09/14 01:48:46;;;;;;;;;7.00;7.00;;;;;;;;5075959;28;45258;-77
2022/09/14 01:51:14;;;;;;;;;8.25;8.25;;;;;;;;5076164;28;45240;-76
2022/09/14 01:54:02;;;;;;;;;8.75;8.75;;;;;;;;5073309;28;45559;-75
2022/09/14 01:56:40;;;;;;;;;11.25;11.25;;;;;;;;5055364;28;45502;-75
2022/09/14 01:59:23;;;;;;;;;7.50;7.50;;;;;;;;5055817;28;45348;-75
2022/09/14 02:01:50;;;;;;;;;8.00;8.00;;;;;;;;5055575;28;45441;-75
2022/09/14 02:04:21;;;;;;;;;9.75;9.75;;;;;;;;5055549;28;45533;-76
2022/09/14 02:06:47;;;;;;;;;9.25;9.25;;;;;;;;5054717;28;46345;-74
2022/09/14 02:09:15;;;;;;;;;9.75;9.75;;;;;;;;5054605;28;45367;-75
2022/09/14 02:11:40;;;;;;;;;9.00;9.00;;;;;;;;5056122;28;45177;-75
2022/09/14 02:14:05;;;;;;;;;8.50;8.50;;;;;;;;5054910;28;45595;-76
2022/09/14 02:16:31;;;;;;;;;6.75;6.75;;;;;;;;5055855;28;45559;-77
2022/09/14 02:18:58;;;;;;;;;9.00;9.00;;;;;;;;5055215;28;45403;-74
2022/09/14 02:21:30;;;;;;;;;7.00;7.00;;;;;;;;5056782;28;45331;-76
2022/09/14 02:23:57;;;;;;;;;9.25;9.00;;;;;;;;5056395;28;45189;-77
2022/09/14 02:26:23;;;;;;;;;7.00;7.00;;;;;;;;5037793;28;48348;-76
2022/09/14 02:28:48;;;;;;;;;8.00;8.00;;;;;;;;5055703;28;45486;-76
2022/09/14 02:31:16;;;;;;;;;8.25;8.25;;;;;;;;5055954;28;45195;-75
2022/09/14 02:33:42;;;;;;;;;9.50;9.50;;;;;;;;5055989;28;45330;-76
2022/09/14 02:36:14;;;;;;;;;9.25;9.25;;;;;;;;5055506;28;46295;-74
2022/09/14 02:38:44;;;;;;;;;8.00;8.00;;;;;;;;5055490;28;45498;-77
2022/09/14 02:41:25;;;;;;;;;9.00;9.00;;;;;;;;5055436;28;45304;-75
2022/09/14 02:44:04;;;;;;;;;9.00;9.00;;;;;;;;5055580;28;45594;-76
2022/09/14 02:46:32;;;;;;;;;9.25;9.25;;;;;;;;5055162;28;46062;-75
2022/09/14 02:49:05;;;;;;;;;9.00;9.00;;;;;;;;5058307;28;45386;-74
2022/09/14 02:51:30;;;;;;;;;8.75;8.75;;;;;;;;5054000;28;45417;-76
2022/09/14 02:53:58;;;;;;;;;11.25;11.25;;;;;;;;5053556;28;45358;-75
2022/09/14 02:56:24;;;;;;;;;7.50;7.50;;;;;;;;5055582;28;45353;-74
2022/09/14 02:58:49;;;;;;;;;10.75;10.00;;;;;;;;5055405;28;45692;-74
2022/09/14 03:01:16;;;;;;;;;7.75;7.75;;;;;;;;5057394;28;45431;-76
2022/09/14 03:03:41;;;;;;;;;9.25;9.25;;;;;;;;5057851;28;45587;-74
2022/09/14 03:06:06;;;;;;;;;8.00;8.00;;;;;;;;5038295;28;47352;-75
2022/09/14 03:08:32;;;;;;;;;8.25;8.25;;;;;;;;5055378;28;45316;-76
2022/09/14 03:10:57;;;;;;;;;9.50;9.50;;;;;;;;5054237;28;45419;-75
2022/09/14 03:13:22;;;;;;;;;8.50;8.50;;;;;;;;5055750;28;45398;-76
2022/09/14 03:15:48;;;;;;;;;9.00;9.00;;;;;;;;5035756;28;47168;-76
2022/09/14 03:18:13;;;;;;;;;8.75;8.75;;;;;;;;5053948;28;45352;-74
2022/09/14 03:20:39;;;;;;;;;10.25;10.25;;;;;;;;5054110;28;45391;-74
2022/09/14 03:23:04;;;;;;;;;9.75;9.75;;;;;;;;5054733;28;45604;-75
2022/09/14 03:25:30;;;;;;;;;9.75;8.50;;;;;;;;5054422;28;46034;-74
2022/09/14 03:27:57;;;;;;;;;8.00;8.00;;;;;;;;5054976;28;45186;-75
2022/09/14 03:30:22;;;;;;;;;7.00;7.00;;;;;;;;5053998;28;45304;-74
2022/09/14 03:32:48;;;;;;;;;6.25;6.25;;;;;;;;5035801;28;45544;-75
2022/09/14 03:35:14;;;;;;;;;6.00;6.00;;;;;;;;5054099;28;45400;-75
2022/09/14 03:37:40;;;;;;;;;7.25;7.25;;;;;;;;5054437;28;45465;-76
2022/09/14 03:40:06;;;;;;;;;6.00;6.00;;;;;;;;5054440;28;45398;-73
2022/09/14 03:42:32;;;;;;;;;5.50;5.50;;;;;;;;5054653;28;45477;-74
2022/09/14 03:44:57;;;;;;;;;8.00;8.00;;;;;;;;5054809;28;45642;-75
2022/09/14 03:47:22;;;;;;;;;8.00;8.00;;;;;;;;5054562;28;45464;-77
2022/09/14 03:49:48;;;;;;;;;9.00;9.00;;;;;;;;5054458;28;45392;-75
2022/09/14 03:52:13;;;;;;;;;5.00;5.00;;;;;;;;5055130;28;45339;-77
2022/09/14 03:54:38;;;;;;;;;9.00;8.25;;;;;;;;5055699;28;45553;-74
2022/09/14 03:57:06;;;;;;;;;8.25;8.25;;;;;;;;5057732;28;45392;-75
2022/09/14 03:59:31;;;;;;;;;6.00;6.00;;;;;;;;5054740;28;45229;-75
2022/09/14 04:01:56;;;;;;;;;5.50;5.50;;;;;;;;5054877;28;45217;-77
2022/09/14 04:04:22;;;;;;;;;7.00;7.00;;;;;;;;5053970;28;46010;-74
2022/09/14 04:06:47;;;;;;;;;7.00;7.00;;;;;;;;5054018;28;45158;-74
2022/09/14 04:09:12;;;;;;;;;6.00;6.00;;;;;;;;5054325;28;45362;-77
2022/09/14 04:11:51;;;;;;;;;8.00;8.00;;;;;;;;5054437;28;45237;-74
2022/09/14 04:14:17;;;;;;;;;4.75;4.75;;;;;;;;5054078;28;45489;-76
2022/09/14 04:16:43;;;;;;;;;3.00;3.00;;;;;;;;5053858;28;45379;-74
2022/09/14 04:19:09;;;;;;;;;8.75;7.00;;;;;;;;5054594;28;45281;-75
2022/09/14 04:21:35;;;;;;;;;6.00;6.00;;;;;;;;5036615;28;45455;-75
2022/09/14 04:24:00;;;;;;;;;2.75;2.75;;;;;;;;5054685;28;45432;-74
2022/09/14 04:26:26;;;;;;;;;7.00;7.00;;;;;;;;5054061;28;45350;-74
2022/09/14 04:28:51;;;;;;;;;6.00;6.00;;;;;;;;5053905;28;45335;-77
2022/09/14 04:31:17;;;;;;;;;8.00;8.00;;;;;;;;5036054;28;45483;-75
2022/09/14 04:33:43;;;;;;;;;7.00;7.00;;;;;;;;5053809;28;45609;-76
2022/09/14 04:36:09;;;;;;;;;7.75;7.75;;;;;;;;5053724;28;45300;-76
2022/09/14 04:38:36;;;;;;;;;6.00;6.00;;;;;;;;5054144;28;45411;-77
2022/09/14 04:41:03;;;;;;;;;7.75;7.00;;;;;;;;5054496;28;45290;-76
2022/09/14 04:43:29;;;;;;;;;10.00;10.00;;;;;;;;5053782;28;45528;-76
2022/09/14 04:46:00;;;;;;;;;5.25;5.25;;;;;;;;5053501;28;45304;-75
2022/09/14 04:48:25;;;;;;;;;6.25;6.25;;;;;;;;5053692;28;45450;-76
2022/09/14 04:50:51;;;;;;;;;6.75;6.75;;;;;;;;5054003;28;45312;-75
2022/09/14 04:53:16;;;;;;;;;6.00;6.00;;;;;;;;5053672;28;46519;-74
2022/09/14 04:55:41;;;;;;;;;7.50;7.50;;;;;;;;5053568;28;45338;-76
2022/09/14 04:58:06;;;;;;;;;7.00;7.00;;;;;;;;5053787;28;45327;-77
2022/09/14 05:00:32;;;;;;;;;8.25;8.25;;;;;;;;5054033;28;45385;-76
2022/09/14 05:02:57;;;;;;;;;9.00;9.00;;;;;;;;5053232;28;46406;-75
2022/09/14 05:05:23;;;;;;;;;6.25;6.00;;;;;;;;5052978;28;45387;-76
2022/09/14 05:07:48;;;;;;;;;5.50;5.50;;;;;;;;5053115;28;45396;-77
2022/09/14 05:10:13;;;;;;;;;4.00;4.00;;;;;;;;5053420;28;45494;-76
2022/09/14 05:12:39;;;;;;;;;7.00;7.00;;;;;;;;5053695;28;45552;-75
2022/09/14 05:15:04;;;;;;;;;6.00;4.75;;;;;;;;5054327;28;45351;-76
2022/09/14 05:17:32;;;;;;;;;5.00;5.00;;;;;;;;5056379;28;45295;-78
2022/09/14 05:19:57;;;;;;;;;4.75;4.75;;;;;;;;5058844;28;45598;-76
2022/09/14 05:22:22;;;;;;;;;6.25;6.25;;;;;;;;5038927;28;47134;-77
2022/09/14 05:24:48;;;;;;;;;7.00;7.00;;;;;;;;5056987;28;45300;-78
2022/09/14 05:27:13;;;;;;;;;10.50;10.50;;;;;;;;5057054;28;45189;-76
2022/09/14 05:29:39;;;;;;;;;7.00;7.00;;;;;;;;5056898;28;45461;-74
2022/09/14 05:32:04;;;;;;;;;7.00;7.00;;;;;;;;5056923;28;45454;-76
2022/09/14 05:34:29;;;;;;;;;8.50;8.50;;;;;;;;5056877;28;45422;-78
2022/09/14 05:36:55;;;;;;;;;13.00;13.00;;;;;;;;5056893;28;45418;-77
2022/09/14 05:39:21;;;;;;;;;14.25;14.25;;;;;;;;5057130;28;45240;-76
2022/09/14 05:41:47;;;;;;;;;8.00;8.00;;;;;;;;5056909;28;46651;-75
2022/09/14 05:44:13;;;;;;;;;9.75;9.75;;;;;;;;5038735;28;45329;-74
2022/09/14 05:46:38;;;;;;;;;11.25;11.25;;;;;;;;5056845;28;45384;-76
2022/09/14 05:49:03;;;;;;;;;6.75;6.75;;;;;;;;5057392;28;45651;-75
2022/09/14 05:51:28;;;;;;;;;9.75;9.75;;;;;;;;5038431;28;48188;-75
2022/09/14 05:53:55;;;;;;;;;9.25;9.25;;;;;;;;5056951;28;45438;-75
2022/09/14 05:56:21;;;;;;;;;6.75;6.75;;;;;;;;5038644;28;45278;-76
2022/09/14 05:58:47;;;;;;;;;8.25;8.25;;;;;;;;5058274;28;45529;-78
2022/09/14 06:01:15;;;;;;;;;7.75;7.75;;;;;;;;5043042;28;47858;-77
2022/09/14 06:03:41;;;;;;;;;13.50;13.50;;;;;;;;5057347;28;45414;-75
2022/09/14 06:06:07;;;;;;;;;7.50;7.50;;;;;;;;5057253;28;45383;-75
2022/09/14 06:08:33;;;;;;;;;9.00;9.00;;;;;;;;5057270;28;45577;-75
2022/09/14 06:11:02;;;;;;;;;9.50;9.50;;;;;;;;5038163;28;47209;-75
2022/09/14 06:13:27;;;;;;;;;11.00;11.00;;;;;;;;5056248;28;45365;-76
2022/09/14 06:15:52;;;;;;;;;11.25;11.25;;;;;;;;5056746;28;45336;-76
2022/09/14 06:18:17;;;;;;;;;8.25;8.25;;;;;;;;5056561;28;45474;-74
2022/09/14 06:20:52;;;;;;;;;9.25;9.25;;;;;;;;5056974;28;46440;-75
2022/09/14 06:23:17;;;;;;;;;11.00;11.00;;;;;;;;5060135;28;45359;-79
2022/09/14 06:25:43;;;;;;;;;12.50;12.50;;;;;;;;5039239;28;45300;-78
2022/09/14 06:28:08;;;;;;;;;9.75;9.75;;;;;;;;5058233;28;45631;-77
2022/09/14 06:30:36;;;;;;;;;13.50;13.50;;;;;;;;5057032;28;45578;-76
2022/09/14 06:33:03;;;;;;;;;12.00;12.00;;;;;;;;5056601;28;45507;-75
2022/09/14 06:35:28;;;;;;;;;11.00;11.00;;;;;;;;5038625;27;45366;-79
2022/09/14 06:37:54;;;;;;;;;13.75;13.75;;;;;;;;5056970;28;45450;-76
2022/09/14 06:40:19;;;;;;;;;13.50;13.50;;;;;;;;5056637;28;45603;-77
2022/09/14 06:42:45;;;;;;;;;3.25;3.25;;;;;;;;5071834;27;45319;-76
2022/09/14 06:45:10;;;;;;;;;9.00;9.00;;;;;;;;5072527;27;45377;-72
2022/09/14 06:47:35;;;;;;;;;12.00;12.00;;;;;;;;5049540;27;45527;-75
2022/09/14 06:50:00;;;;;;;;;10.00;10.00;;;;;;;;5063808;28;46123;-77
2022/09/14 06:52:26;;;;;;;;;10.50;10.50;;;;;;;;5068877;27;45379;-79
2022/09/14 06:54:51;;;;;;;;;17.75;17.75;;;;;;;;5074418;28;45707;-78
2022/09/14 06:57:16;;;;;;;;;10.25;10.25;;;;;;;;5075627;28;45546;-78
2022/09/14 06:59:41;;;;;;;;;13.00;13.00;;;;;;;;5077509;28;46268;-78
2022/09/14 07:02:08;;;;;;;;;13.00;12.75;;;;;;;;5059081;28;45446;-77
2022/09/14 07:04:35;;;;;;;;;11.75;11.75;;;;;;;;5059066;28;45319;-77
2022/09/14 07:07:01;;;;;;;;;12.50;12.50;;;;;;;;5077394;28;45507;-78
2022/09/14 07:09:26;;;;;;;;;14.25;14.25;;;;;;;;5060432;28;46380;-77
2022/09/14 07:11:52;;;;;;;;;13.00;13.00;;;;;;;;5078447;28;45338;-77
2022/09/14 07:14:19;;;;;;;;;11.00;11.00;;;;;;;;5080149;28;45463;-79
2022/09/14 07:16:44;;;;;;;;;13.00;11.75;;;;;;;;5077224;28;45421;-78
2022/09/14 07:19:10;;;;;;;;;13.50;12.00;;;;;;;;5076387;28;45538;-79
2022/09/14 07:21:36;;;;;;;;;9.50;9.50;;;;;;;;5076116;28;45189;-77
2022/09/14 07:24:01;;;;;;;;;13.25;13.25;;;;;;;;5076763;28;45379;-78
2022/09/14 07:26:29;;;;;;;;;13.25;13.00;;;;;;;;5078538;28;45217;-78
2022/09/14 07:28:56;;;;;;;;;11.75;11.75;;;;;;;;5076099;28;45279;-78
2022/09/14 07:31:25;;;;;;;;;11.50;11.50;;;;;;;;5055189;28;45724;-79
2022/09/14 07:33:54;;;;;;;;;9.75;9.75;;;;;;;;5054104;28;45477;-78
2022/09/14 07:36:19;;;;;;;;;10.25;10.25;;;;;;;;5061101;28;45339;-78
2022/09/14 07:38:45;;;;;;;;;8.00;8.00;;;;;;;;5043729;28;46947;-79
2022/09/14 07:41:10;;;;;;;;;7.00;7.00;;;;;;;;5063648;28;45444;-79
2022/09/14 07:43:35;;;;;;;;;11.75;11.75;;;;;;;;5067732;28;45406;-76
2022/09/14 07:46:02;;;;;;;;;8.75;8.75;;;;;;;;5070887;28;45266;-78
2022/09/14 07:48:28;;;;;;;;;16.00;16.00;;;;;;;;5063591;28;45685;-78
2022/09/14 07:51:00;;;;;;;;;9.00;9.00;;;;;;;;5061385;28;45380;-78
2022/09/14 07:53:26;;;;;;;;;8.75;8.75;;;;;;;;5062303;28;45333;-79
2022/09/14 07:55:51;;;;;;;;;8.00;8.00;;;;;;;;5060663;28;45234;-79
2022/09/14 07:58:16;;;;;;;;;14.50;14.50;;;;;;;;5039327;28;47430;-79
2022/09/14 08:00:42;;;;;;;;;7.25;7.25;;;;;;;;5059334;28;45570;-79
2022/09/14 08:03:07;;;;;;;;;9.50;9.50;;;;;;;;5071423;28;45473;-79
2022/09/14 08:05:32;;;;;;;;;14.75;14.75;;;;;;;;5055411;28;45457;-79
2022/09/14 08:07:58;;;;;;;;;8.00;8.00;;;;;;;;5044514;28;47388;-79
2022/09/14 08:10:24;;;;;;;;;8.25;8.25;;;;;;;;5075161;28;45252;-78
2022/09/14 08:12:53;;;;;;;;;11.00;10.00;;;;;;;;5075244;28;45378;-79
2022/09/14 08:15:19;;;;;;;;;10.00;10.00;;;;;;;;5075308;28;45613;-79
2022/09/14 08:17:44;;;;;;;;;7.00;7.00;;;;;;;;5074906;28;46239;-78
2022/09/14 08:20:09;;;;;;;;;10.25;10.25;;;;;;;;5065588;28;45304;-79
2022/09/14 08:22:35;;;;;;;;;10.00;10.00;;;;;;;;5054343;28;45404;-79
2022/09/14 08:25:00;;;;;;;;;13.25;13.25;;;;;;;;5054310;28;45376;-78
2022/09/14 08:27:25;;;;;;;;;9.50;9.50;;;;;;;;5054509;28;45546;-77
2022/09/14 08:29:50;;;;;;;;;12.00;12.00;;;;;;;;5054921;28;45386;-78
2022/09/14 08:32:15;;;;;;;;;13.25;12.75;;;;;;;;5054413;28;45374;-78
2022/09/14 08:34:41;;;;;;;;;11.50;11.50;;;;;;;;5035705;28;45470;-77
2022/09/14 08:37:06;;;;;;;;;10.25;10.25;;;;;;;;5054227;28;46041;-79
2022/09/14 08:39:31;;;;;;;;;10.00;10.00;;;;;;;;5055392;28;45236;-79
2022/09/14 08:41:58;;;;;;;;;12.75;12.75;;;;;;;;5055416;28;45330;-78
2022/09/14 08:44:28;;;;;;;;;12.50;12.50;;;;;;;;5055251;28;45510;-79
2022/09/14 08:46:53;;;;;;;;;10.25;10.25;;;;;;;;5055307;28;46080;-79
2022/09/14 08:49:38;;;;;;;;;10.25;10.25;;;;;;;;5055454;28;45309;-78
2022/09/14 08:52:04;;;;;;;;;15.25;15.25;;;;;;;;5042653;27;45640;-78
2022/09/14 08:54:30;;;;;;;;;13.00;13.00;;;;;;;;5063184;28;45374;-78
2022/09/14 08:57:15;;;;;;;;;16.50;16.50;;;;;;;;5063396;28;45451;-79
2022/09/14 08:59:44;;;;;;;;;16.00;16.00;;;;;;;;5065696;27;45333;-77
2022/09/14 09:02:19;;;;;;;;;9.75;9.75;;;;;;;;5064948;28;45399;-80
2022/09/14 09:04:51;;;;;;;;;11.00;11.00;;;;;;;;5057308;28;45443;-78
2022/09/14 09:07:16;;;;;;;;;11.00;11.00;;;;;;;;5057898;28;45475;-80
2022/09/14 09:09:46;;;;;;;;;8.00;8.00;;;;;;;;5058542;28;45284;-78
2022/09/14 09:12:13;;;;;;;;;9.75;9.75;;;;;;;;5040456;28;45242;-78
2022/09/14 09:14:40;;;;;;;;;9.75;9.75;;;;;;;;5058449;28;46057;-79
2022/09/14 09:17:20;;;;;;;;;9.00;8.00;;;;;;;;5039638;28;47230;-79
2022/09/14 09:20:05;;;;;;;;;10.75;10.75;;;;;;;;5040540;28;45889;-80
2022/09/14 09:22:34;;;;;;;;;9.75;9.75;;;;;;;;5040092;28;45307;-79
2022/09/14 09:25:02;;;;;;;;;10.00;10.00;;;;;;;;5058573;28;45229;-78
2022/09/14 09:27:28;;;;;;;;;10.00;10.00;;;;;;;;5058363;28;46092;-79
2022/09/14 09:29:53;;;;;;;;;9.25;9.25;;;;;;;;5058778;28;45310;-79
2022/09/14 09:32:20;;;;;;;;;8.75;8.75;;;;;;;;5059344;28;45408;-79
2022/09/14 09:34:46;;;;;;;;;8.00;8.00;;;;;;;;5066961;28;45219;-80
2022/09/14 09:37:15;;;;;;;;;9.25;9.25;;;;;;;;5062460;28;47842;-78
2022/09/14 09:39:42;;;;;;;;;8.00;8.00;;;;;;;;5054235;28;45415;-79
2022/09/14 09:42:12;;;;;;;;;6.25;6.25;;;;;;;;5059600;28;45383;-78
2022/09/14 09:44:56;;;;;;;;;8.00;8.00;;;;;;;;5040456;28;45289;-79
2022/09/14 09:47:38;;;;;;;;;8.00;7.00;;;;;;;;5058978;28;45434;-78
2022/09/14 09:50:12;;;;;;;;;7.25;7.25;;;;;;;;5057929;28;45391;-77
2022/09/14 09:52:38;;;;;;;;;9.00;9.00;;;;;;;;5071852;28;45406;-78
2022/09/14 09:55:05;;;;;;;;;10.50;10.50;;;;;;;;5078096;28;45332;-78
2022/09/14 09:57:32;;;;;;;;;7.75;7.75;;;;;;;;5077742;28;45700;-78
2022/09/14 10:00:16;;;;;;;;;7.00;7.00;;;;;;;;5077251;28;45417;-79
2022/09/14 10:02:42;;;;;;;;;7.50;7.50;;;;;;;;5076854;28;45315;-80
2022/09/14 10:05:10;;;;;;;;;9.25;9.25;;;;;;;;5076082;28;45682;-78
2022/09/14 10:07:49;;;;;;;;;8.75;8.75;;;;;;;;5076928;28;46569;-80
2022/09/14 10:10:16;;;;;;;;;8.50;8.50;;;;;;;;5077338;28;45355;-78
2022/09/14 10:12:52;;;;;;;;;7.00;7.00;;;;;;;;5078241;28;45418;-80
2022/09/14 10:15:24;;;;;;;;;11.25;10.25;;;;;;;;5079379;28;45322;-80
2022/09/14 10:17:56;;;;;;;;;10.75;10.75;;;;;;;;5060821;28;47405;-80
2022/09/14 10:20:23;;;;;;;;;5.50;5.50;;;;;;;;5079449;28;45472;-79
2022/09/14 10:22:48;;;;;;;;;9.75;9.75;;;;;;;;5079443;28;45382;-80
2022/09/14 10:25:13;;;;;;;;;12.00;12.00;;;;;;;;5078985;28;45381;-80
2022/09/14 10:27:54;;;;;;;;;12.25;12.25;;;;;;;;5059356;28;47206;-80
2022/09/14 10:30:23;;;;;;;;;7.00;7.00;;;;;;;;5077708;28;45279;-78
2022/09/14 10:32:49;;;;;;;;;16.75;16.75;;;;;;;;5076733;28;45424;-78
2022/09/14 10:35:14;;;;;;;;;8.25;8.25;;;;;;;;5077087;28;45549;-78
2022/09/14 10:37:42;;;;;;;;;5.75;5.75;;;;;;;;5076793;28;46353;-79
2022/09/14 10:40:11;;;;;;;;;8.25;8.25;;;;;;;;5076585;28;45226;-79
2022/09/14 10:42:39;;;;;;;;;8.00;8.00;;;;;;;;5077993;28;45390;-80
2022/09/14 10:45:05;;;;;;;;;5.50;5.50;;;;;;;;5077797;28;45517;-77
2022/09/14 10:47:55;;;;;;;;;3.75;3.75;;;;;;;;5076881;28;45422;-77
2022/09/14 10:50:26;;;;;;;;;8.00;8.00;;;;;;;;5059292;28;45382;-79
2022/09/14 10:53:08;;;;;;;;;6.00;6.00;;;;;;;;5077575;28;45345;-78
2022/09/14 10:55:41;;;;;;;;;5.75;5.75;;;;;;;;5077786;28;45350;-77
2022/09/14 10:58:17;;;;;;;;;7.00;7.00;;;;;;;;5074238;28;45464;-78
2022/09/14 11:00:51;;;;;;;;;6.25;6.25;;;;;;;;5075237;28;45403;-78
2022/09/14 11:03:16;;;;;;;;;6.25;6.25;;;;;;;;5057485;28;45379;-78
2022/09/14 11:05:46;;;;;;;;;4.25;4.25;;;;;;;;5078355;28;45351;-78
2022/09/14 11:08:27;;;;;;;;;8.00;8.00;;;;;;;;5059757;28;47168;-78
2022/09/14 11:11:15;;;;;;;;;4.75;4.75;;;;;;;;5077873;27;45424;-78
2022/09/14 11:13:41;;;;;;;;;5.25;5.25;;;;;;;;5076594;28;45436;-79
2022/09/14 11:16:06;;;;;;;;;7.25;7.25;;;;;;;;5078299;28;45561;-78
2022/09/14 11:18:39;;;;;;;;;6.00;6.00;;;;;;;;5060492;28;47538;-78
2022/09/14 11:21:14;;;;;;;;;5.75;5.75;;;;;;;;5080808;28;45473;-79
2022/09/14 11:23:57;;;;;;;;;4.75;4.75;;;;;;;;5078503;28;45417;-79
2022/09/14 11:26:30;;;;;;;;;2.00;2.00;;;;;;;;5077164;28;45279;-78
2022/09/14 11:29:22;;;;;;;;;7.25;7.25;;;;;;;;5057905;28;48452;-78
2022/09/14 11:31:52;;;;;;;;;10.25;10.25;;;;;;;;5072369;27;45572;-78
2022/09/14 11:34:24;;;;;;;;;3.00;3.00;;;;;;;;5057615;28;45280;-79
2022/09/14 11:36:53;;;;;;;;;3.50;3.50;;;;;;;;5076002;28;45523;-79
2022/09/14 11:39:27;;;;;;;;;2.00;2.00;;;;;;;;5075433;28;45460;-78
2022/09/14 11:42:12;;;;;;;;;5.00;4.00;;;;;;;;5076384;28;45386;-80
2022/09/14 11:44:39;;;;;;;;;4.75;4.75;;;;;;;;5076925;28;45322;-79
2022/09/14 11:47:08;;;;;;;;;4.00;4.00;;;;;;;;5077693;28;45555;-78
2022/09/14 11:49:33;;;;;;;;;8.75;8.75;;;;;;;;5059038;28;47056;-79
2022/09/14 11:52:31;;;;;;;;;5.50;5.50;;;;;;;;5075874;28;45246;-77
2022/09/14 11:54:57;;;;;;;;;2.25;2.25;;;;;;;;5055635;28;45411;-80
2022/09/14 11:57:24;;;;;;;;;4.25;4.25;;;;;;;;5084614;28;45453;-80
2022/09/14 11:59:54;;;;;;;;;3.00;3.00;;;;;;;;5079202;28;46132;-79
2022/09/14 12:02:22;;;;;;;;;3.00;3.00;;;;;;;;5076912;28;45299;-81
2022/09/14 12:05:05;;;;;;;;;5.00;5.00;;;;;;;;5077332;28;45386;-79
2022/09/14 12:07:46;;;;;;;;;2.00;2.00;;;;;;;;5077773;28;45462;-80
2022/09/14 12:10:17;;;;;;;;;4.00;4.00;;;;;;;;5076178;28;45267;-78
2022/09/14 12:12:42;;;;;;;;;2.00;2.00;;;;;;;;5076933;28;45416;-79
2022/09/14 12:15:13;;;;;;;;;1.50;1.50;;;;;;;;5076356;28;45428;-79
2022/09/14 12:17:40;;;;;;;;;2.00;2.00;;;;;;;;5076674;28;45357;-79
2022/09/14 12:20:20;;;;;;;;;2.00;2.00;;;;;;;;5076278;28;45487;-79
2022/09/14 12:22:47;;;;;;;;;2.00;2.00;;;;;;;;5077180;28;45162;-79
2022/09/14 12:25:21;;;;;;;;;3.25;3.25;;;;;;;;5076460;28;45359;-79
2022/09/14 12:27:47;;;;;;;;;3.75;3.75;;;;;;;;5067132;28;45597;-79
2022/09/14 12:30:34;;;;;;;;;4.25;4.25;;;;;;;;5082814;28;45286;-79
2022/09/14 12:33:00;;;;;;;;;3.00;3.00;;;;;;;;5083054;28;45231;-78
2022/09/14 12:35:31;;;;;;;;;2.25;2.25;;;;;;;;5082604;28;45308;-78
2022/09/14 12:37:57;;;;;;;;;5.50;5.50;;;;;;;;5064687;28;45308;-78
2022/09/14 12:40:28;;;;;;;;;2.75;2.75;;;;;;;;5082400;28;46299;-79
2022/09/14 12:42:53;;;;;;;;;2.75;2.75;;;;;;;;5082686;28;45442;-78
2022/09/14 12:45:37;;;;;;;;;12.00;12.00;;;;;;;;5082393;28;45481;-78
2022/09/14 12:48:03;;;;;;;;;3.00;3.00;;;;;;;;5083530;28;45378;-78
2022/09/14 12:50:31;;;;;;;;;3.00;3.00;;;;;;;;5063951;28;47289;-78
2022/09/14 12:53:20;;;;;;;;;2.75;2.75;;;;;;;;5082259;28;45225;-80
2022/09/14 12:55:53;;;;;;;;;1.25;1.25;;;;;;;;5076019;27;45240;-78
2022/09/14 12:58:21;;;;;;;;;2.00;2.00;;;;;;;;5082767;28;45357;-78
2022/09/14 13:01:16;;;;;;;;;5.25;5.25;;;;;;;;5082501;28;45417;-78
2022/09/14 13:03:52;;;;;;;;;2.00;2.00;;;;;;;;5083167;28;45441;-78
2022/09/14 13:06:19;;;;;;;;;2.00;2.00;;;;;;;;5084965;28;45362;-79
2022/09/14 13:08:46;;;;;;;;;2.75;2.75;;;;;;;;5084826;28;45401;-78
2022/09/14 13:11:18;;;;;;;;;2.50;2.50;;;;;;;;5081361;28;46135;-78
2022/09/14 13:13:44;;;;;;;;;1.25;1.25;;;;;;;;5081230;28;45373;-77
2022/09/14 13:16:14;;;;;;;;;2.25;2.25;;;;;;;;5081187;28;45348;-78
2022/09/14 13:18:39;;;;;;;;;2.00;2.00;;;;;;;;5062824;28;45269;-79
2022/09/14 13:21:18;;;;;;;;;2.75;2.75;;;;;;;;5080891;28;45485;-77
2022/09/14 13:23:44;;;;;;;;;3.50;3.50;;;;;;;;5081485;28;45340;-78
2022/09/14 13:26:19;;;;;;;;;2.25;2.25;;;;;;;;5080852;28;45437;-80
2022/09/14 13:28:46;;;;;;;;;3.50;3.50;;;;;;;;5063216;28;45436;-78
2022/09/14 13:31:31;;;;;;;;;4.00;4.00;;;;;;;;5081318;28;45520;-78
2022/09/14 13:33:57;;;;;;;;;3.00;3.00;;;;;;;;5080616;27;45287;-79
2022/09/14 13:36:27;;;;;;;;;1.50;1.50;;;;;;;;5080684;28;45257;-79
2022/09/14 13:38:53;;;;;;;;;1.25;1.25;;;;;;;;5060956;28;45365;-77
2022/09/14 13:41:21;;;;;;;;;1.00;1.00;;;;;;;;5059346;28;45370;-78
2022/09/14 13:43:47;;;;;;;;;1.00;1.00;;;;;;;;5059090;28;45241;-80
2022/09/14 13:46:13;;;;;;;;;1.75;1.75;;;;;;;;5078019;28;45429;-79
2022/09/14 13:48:39;;;;;;;;;1.00;1.00;;;;;;;;5077911;28;45600;-77
2022/09/14 13:51:05;;;;;;;;;3.25;3.25;;;;;;;;5077926;28;46464;-80
2022/09/14 13:53:39;;;;;;;;;2.50;2.50;;;;;;;;5077687;28;45311;-79
2022/09/14 13:56:24;;;;;;;;;2.50;2.50;;;;;;;;5078283;28;45367;-79
2022/09/14 13:59:10;;;;;;;;;2.25;2.25;;;;;;;;5078205;27;45244;-79
2022/09/14 14:01:58;;;;;;;;;0.75;0.75;;;;;;;;5077533;27;45612;-78
2022/09/14 14:04:26;;;;;;;;;2.00;2.00;;;;;;;;5071655;27;45441;-80
2022/09/14 14:07:00;;;;;;;;;1.00;1.00;;;;;;;;5077402;28;45222;-79
2022/09/14 14:09:36;;;;;;;;;0.00;0.00;;;;;;;;5077589;28;45622;-79
2022/09/14 14:12:01;;;;;;;;;1.50;1.50;;;;;;;;5077662;28;46386;-81
2022/09/14 14:14:27;;;;;;;;;2.00;2.00;;;;;;;;5077369;28;45403;-79
2022/09/14 14:17:11;;;;;;;;;0.00;0.00;;;;;;;;5077585;28;45299;-79
2022/09/14 14:19:39;;;;;;;;;0.00;0.00;;;;;;;;5077774;28;45299;-80
2022/09/14 14:22:13;;;;;;;;;1.00;1.00;;;;;;;;5078001;28;45345;-78
2022/09/14 14:24:38;;;;;;;;;1.00;1.00;;;;;;;;5077020;28;45230;-80
2022/09/14 14:27:04;;;;;;;;;2.50;2.50;;;;;;;;5077251;28;45345;-79
2022/09/14 14:29:29;;;;;;;;;2.75;2.75;;;;;;;;5077527;28;45514;-79
2022/09/14 14:31:55;;;;;;;;;4.75;4.75;;;;;;;;5077004;28;45837;-80
2022/09/14 14:34:22;;;;;;;;;2.50;2.50;;;;;;;;5058905;28;45237;-78
2022/09/14 14:36:49;;;;;;;;;1.00;1.00;;;;;;;;5076668;28;45274;-80
2022/09/14 14:39:15;;;;;;;;;0.25;0.25;;;;;;;;5077085;28;45286;-79
2022/09/14 14:41:40;;;;;;;;;0.00;0.00;;;;;;;;5076794;28;45445;-79
2022/09/14 14:44:09;;;;;;;;;1.00;1.00;;;;;;;;5076754;28;45354;-81
2022/09/14 14:46:34;;;;;;;;;1.50;1.50;;;;;;;;5059365;28;45297;-79